Terminal Aerodrome Forecast
Issued by NWS Atlanta, GA

Home | Current Version | Previous Version | Text Only | Print | Product List | Glossary On
Versions: 1 2 3 4 5 6 7 8 9 10 11 12 13
571
FTUS42 KFFC 281720
TAFCSG
TAF
KCSG 281720Z 2818/2918 07010KT P6SM SCT040
     FM290100 08005KT P6SM SCT250
     FM291400 08009KT P6SM OVC050=

USA.gov is the U.S. government's official web portal to all federal, state and local government web resources and services.